sensor_id;sensor_type;location;lat;lon;timestamp;pressure;altitude;pressure_sealevel;temperature;humidity
3132;BME280;62090;52.330;9.104;2024-03-23T00:53:55;100334.31;;;10.54;100.00
3132;BME280;62090;52.330;9.104;2024-03-23T00:56:21;100308.59;;;10.41;100.00
3132;BME280;62090;52.330;9.104;2024-03-23T00:58:47;100272.69;;;10.27;100.00
3132;BME280;62090;52.330;9.104;2024-03-23T01:01:13;100308.94;;;10.61;100.00
3132;BME280;62090;52.330;9.104;2024-03-23T01:03:40;100294.25;;;10.47;100.00
3132;BME280;62090;52.330;9.104;2024-03-23T01:06:06;100322.47;;;10.58;100.00
3132;BME280;62090;52.330;9.104;2024-03-23T01:08:35;100319.94;;;10.59;100.00
3132;BME280;62090;52.330;9.104;2024-03-23T01:11:01;100317.38;;;10.56;100.00
3132;BME280;62090;52.330;9.104;2024-03-23T01:13:28;100312.28;;;10.58;100.00
3132;BME280;62090;52.330;9.104;2024-03-23T01:15:56;100286.56;;;10.44;100.00
3132;BME280;62090;52.330;9.104;2024-03-23T01:18:23;100295.19;;;10.51;100.00
3132;BME280;62090;52.330;9.104;2024-03-23T01:20:49;100299.47;;;10.52;100.00
3132;BME280;62090;52.330;9.104;2024-03-23T01:23:16;100277.09;;;10.36;100.00
3132;BME280;62090;52.330;9.104;2024-03-23T01:25:51;100259.22;;;10.34;100.00
3132;BME280;62090;52.330;9.104;2024-03-23T01:28:18;100290.91;;;10.50;100.00
3132;BME280;62090;52.330;9.104;2024-03-23T01:30:44;100247.09;;;10.20;100.00
3132;BME280;62090;52.330;9.104;2024-03-23T01:33:10;100282.34;;;10.45;100.00
3132;BME280;62090;52.330;9.104;2024-03-23T01:35:37;100279.81;;;10.46;100.00
3132;BME280;62090;52.330;9.104;2024-03-23T01:38:03;100272.16;;;10.45;100.00
3132;BME280;62090;52.330;9.104;2024-03-23T01:40:30;100268.66;;;10.40;100.00
3132;BME280;62090;52.330;9.104;2024-03-23T01:43:03;100272.81;;;10.35;100.00
3132;BME280;62090;52.330;9.104;2024-03-23T01:45:30;100261.47;;;10.18;100.00
3132;BME280;62090;52.330;9.104;2024-03-23T01:47:56;100233.88;;;9.94;100.00
3132;BME280;62090;52.330;9.104;2024-03-23T01:50:23;100275.03;;;10.16;100.00
3132;BME280;62090;52.330;9.104;2024-03-23T01:52:50;100245.03;;;10.02;100.00
3132;BME280;62090;52.330;9.104;2024-03-23T01:55:17;100256.19;;;10.08;100.00
3132;BME280;62090;52.330;9.104;2024-03-23T01:57:43;100257.84;;;10.06;100.00
3132;BME280;62090;52.330;9.104;2024-03-23T02:00:13;100239.94;;;10.02;100.00
3132;BME280;62090;52.330;9.104;2024-03-23T02:02:43;100251.81;;;10.01;100.00
3132;BME280;62090;52.330;9.104;2024-03-23T02:05:10;100248.31;;;9.96;100.00
3132;BME280;62090;52.330;9.104;2024-03-23T02:07:37;100238.84;;;9.89;100.00
3132;BME280;62090;52.330;9.104;2024-03-23T02:10:05;100230.38;;;9.90;100.00
3132;BME280;62090;52.330;9.104;2024-03-23T02:12:32;100244.97;;;9.99;100.00
3132;BME280;62090;52.330;9.104;2024-03-23T02:14:58;100234.06;;;10.04;100.00
3132;BME280;62090;52.330;9.104;2024-03-23T02:17:28;100228.84;;;10.00;100.00
3132;BME280;62090;52.330;9.104;2024-03-23T02:19:55;100232.34;;;10.03;100.00
3132;BME280;62090;52.330;9.104;2024-03-23T02:22:21;100189.47;;;9.78;100.00
3132;BME280;62090;52.330;9.104;2024-03-23T02:24:50;100229.78;;;10.05;100.00
3132;BME280;62090;52.330;9.104;2024-03-23T02:27:16;100228.16;;;10.07;100.00
3132;BME280;62090;52.330;9.104;2024-03-23T02:29:42;100214.53;;;10.05;100.00
3132;BME280;62090;52.330;9.104;2024-03-23T02:32:08;100224.16;;;10.18;100.00
3132;BME280;62090;52.330;9.104;2024-03-23T02:34:35;100182.00;;;9.89;100.00
3132;BME280;62090;52.330;9.104;2024-03-23T02:37:01;100232.53;;;10.14;100.00
3132;BME280;62090;52.330;9.104;2024-03-23T02:39:28;100185.41;;;9.88;100.00
3132;BME280;62090;52.330;9.104;2024-03-23T02:41:57;100218.78;;;10.06;100.00
3132;BME280;62090;52.330;9.104;2024-03-23T02:44:23;100213.59;;;10.00;100.00
3132;BME280;62090;52.330;9.104;2024-03-23T02:46:49;100216.22;;;10.03;100.00
3132;BME280;62090;52.330;9.104;2024-03-23T02:49:15;100205.06;;;9.96;100.00
3132;BME280;62090;52.330;9.104;2024-03-23T02:51:42;100207.34;;;9.84;100.00
3132;BME280;62090;52.330;9.104;2024-03-23T02:54:08;100185.91;;;9.70;100.00
3132;BME280;62090;52.330;9.104;2024-03-23T02:56:34;100202.47;;;9.93;100.00
3132;BME280;62090;52.330;9.104;2024-03-23T02:59:03;100194.13;;;10.02;100.00
3132;BME280;62090;52.330;9.104;2024-03-23T03:01:29;100188.16;;;10.01;100.00
3132;BME280;62090;52.330;9.104;2024-03-23T03:03:55;100190.03;;;10.11;100.00
3132;BME280;62090;52.330;9.104;2024-03-23T03:06:25;100198.47;;;10.07;100.00
3132;BME280;62090;52.330;9.104;2024-03-23T03:08:52;100189.00;;;9.99;100.00
3132;BME280;62090;52.330;9.104;2024-03-23T03:11:18;100189.00;;;9.99;100.00
3132;BME280;62090;52.330;9.104;2024-03-23T03:13:45;100195.84;;;10.03;100.00
3132;BME280;62090;52.330;9.104;2024-03-23T03:16:13;100195.88;;;10.04;100.00
3132;BME280;62090;52.330;9.104;2024-03-23T03:18:40;100200.00;;;9.99;100.00
3132;BME280;62090;52.330;9.104;2024-03-23T03:21:07;100142.72;;;9.74;100.00
3132;BME280;62090;52.330;9.104;2024-03-23T03:23:33;100169.16;;;9.81;100.00
3132;BME280;62090;52.330;9.104;2024-03-23T03:26:00;100122.81;;;9.51;100.00
3132;BME280;62090;52.330;9.104;2024-03-23T03:28:26;100172.75;;;9.92;100.00
3132;BME280;62090;52.330;9.104;2024-03-23T03:30:52;100187.22;;;9.96;100.00
3132;BME280;62090;52.330;9.104;2024-03-23T03:33:21;100194.88;;;9.96;100.00
3132;BME280;62090;52.330;9.104;2024-03-23T03:35:47;100188.00;;;9.92;100.00
3132;BME280;62090;52.330;9.104;2024-03-23T03:38:13;100160.63;;;9.79;100.00
3132;BME280;62090;52.330;9.104;2024-03-23T03:40:41;100198.28;;;9.97;100.00
3132;BME280;62090;52.330;9.104;2024-03-23T03:43:07;100142.56;;;9.65;100.00
3132;BME280;62090;52.330;9.104;2024-03-23T03:45:34;100176.94;;;9.90;100.00
3132;BME280;62090;52.330;9.104;2024-03-23T03:48:00;100120.38;;;9.57;100.00
3132;BME280;62090;52.330;9.104;2024-03-23T03:50:29;100169.25;;;9.87;100.00
3132;BME280;62090;52.330;9.104;2024-03-23T03:52:55;100176.88;;;9.86;100.00
3132;BME280;62090;52.330;9.104;2024-03-23T03:55:21;100170.88;;;9.82;100.00
3132;BME280;62090;52.330;9.104;2024-03-23T03:57:48;100152.78;;;9.68;100.00
3132;BME280;62090;52.330;9.104;2024-03-23T04:00:14;100116.78;;;9.47;100.00
3132;BME280;62090;52.330;9.104;2024-03-23T04:02:41;100129.03;;;9.68;100.00
3132;BME280;62090;52.330;9.104;2024-03-23T04:05:07;100119.59;;;9.61;100.00
3132;BME280;62090;52.330;9.104;2024-03-23T04:07:36;100140.16;;;9.71;100.00
3132;BME280;62090;52.330;9.104;2024-03-23T04:10:03;100099.72;;;9.40;100.00
3132;BME280;62090;52.330;9.104;2024-03-23T04:12:29;100143.28;;;9.57;100.00
3132;BME280;62090;52.330;9.104;2024-03-23T04:14:56;100150.81;;;9.54;100.00
3132;BME280;62090;52.330;9.104;2024-03-23T04:17:22;100147.38;;;9.50;100.00
3132;BME280;62090;52.330;9.104;2024-03-23T04:19:48;100112.09;;;9.23;100.00
3132;BME280;62090;52.330;9.104;2024-03-23T04:22:14;100098.19;;;9.06;100.00
3132;BME280;62090;52.330;9.104;2024-03-23T04:24:43;100142.06;;;9.38;100.00
3132;BME280;62090;52.330;9.104;2024-03-23T04:27:10;100158.16;;;9.39;100.00
3132;BME280;62090;52.330;9.104;2024-03-23T04:29:36;100130.72;;;9.22;100.00
3132;BME280;62090;52.330;9.104;2024-03-23T04:32:02;100154.75;;;9.38;100.00
3132;BME280;62090;52.330;9.104;2024-03-23T04:34:29;100144.47;;;9.32;100.00
3132;BME280;62090;52.330;9.104;2024-03-23T04:36:55;100141.81;;;9.26;100.00
3132;BME280;62090;52.330;9.104;2024-03-23T04:39:21;100072.38;;;8.85;100.00
3132;BME280;62090;52.330;9.104;2024-03-23T04:41:50;100142.88;;;9.36;100.00
3132;BME280;62090;52.330;9.104;2024-03-23T04:44:16;100140.41;;;9.42;100.00
3132;BME280;62090;52.330;9.104;2024-03-23T04:46:43;100140.53;;;9.46;100.00
3132;BME280;62090;52.330;9.104;2024-03-23T04:49:09;100138.88;;;9.50;100.00
3132;BME280;62090;52.330;9.104;2024-03-23T04:51:36;100131.34;;;9.54;100.00
3132;BME280;62090;52.330;9.104;2024-03-23T04:54:03;100132.25;;;9.58;100.00
3132;BME280;62090;52.330;9.104;2024-03-23T04:56:31;100131.34;;;9.54;100.00
3132;BME280;62090;52.330;9.104;2024-03-23T04:59:00;100045.63;;;9.02;100.00
3132;BME280;62090;52.330;9.104;2024-03-23T05:01:26;100126.22;;;9.51;100.00
3132;BME280;62090;52.330;9.104;2024-03-23T05:03:53;100095.38;;;9.35;100.00
3132;BME280;62090;52.330;9.104;2024-03-23T05:06:19;100104.69;;;9.34;100.00
3132;BME280;62090;52.330;9.104;2024-03-23T05:08:45;100115.75;;;9.38;100.00
3132;BME280;62090;52.330;9.104;2024-03-23T05:11:12;100102.72;;;9.19;100.00
3132;BME280;62090;52.330;9.104;2024-03-23T05:13:38;100130.13;;;9.34;100.00
3132;BME280;62090;52.330;9.104;2024-03-23T05:16:07;100105.91;;;9.11;100.00
3132;BME280;62090;52.330;9.104;2024-03-23T05:18:33;100028.59;;;8.56;100.00
3132;BME280;62090;52.330;9.104;2024-03-23T05:21:00;100121.97;;;9.10;100.00
3132;BME280;62090;52.330;9.104;2024-03-23T05:23:27;100126.25;;;9.11;100.00
3132;BME280;62090;52.330;9.104;2024-03-23T05:25:54;100091.19;;;8.93;100.00
3132;BME280;62090;52.330;9.104;2024-03-23T05:28:21;100122.97;;;9.16;100.00
3132;BME280;62090;52.330;9.104;2024-03-23T05:30:50;100114.47;;;9.14;100.00
3132;BME280;62090;52.330;9.104;2024-03-23T05:33:19;100090.44;;;8.99;100.00
3132;BME280;62090;52.330;9.104;2024-03-23T05:35:46;100095.75;;;9.09;100.00
3132;BME280;62090;52.330;9.104;2024-03-23T05:38:12;100102.59;;;9.13;100.00
3132;BME280;62090;52.330;9.104;2024-03-23T05:40:39;100073.56;;;9.02;100.00
3132;BME280;62090;52.330;9.104;2024-03-23T05:43:05;100115.59;;;9.28;100.00
3132;BME280;62090;52.330;9.104;2024-03-23T05:45:31;100101.97;;;9.26;100.00
3132;BME280;62090;52.330;9.104;2024-03-23T05:47:57;100107.97;;;9.28;100.00
3132;BME280;62090;52.330;9.104;2024-03-23T05:50:27;100086.56;;;9.17;100.00
3132;BME280;62090;52.330;9.104;2024-03-23T05:52:53;100101.69;;;9.11;100.00
3132;BME280;62090;52.330;9.104;2024-03-23T05:55:19;100108.63;;;9.18;100.00
3132;BME280;62090;52.330;9.104;2024-03-23T05:57:45;100109.47;;;9.19;100.00
3132;BME280;62090;52.330;9.104;2024-03-23T06:00:12;100112.88;;;9.21;100.00
3132;BME280;62090;52.330;9.104;2024-03-23T06:02:41;100094.75;;;9.04;100.00
3132;BME280;62090;52.330;9.104;2024-03-23T06:05:08;100108.47;;;9.11;100.00
3132;BME280;62090;52.330;9.104;2024-03-23T06:07:37;100112.81;;;9.16;100.00
3132;BME280;62090;52.330;9.104;2024-03-23T06:10:04;100087.72;;;8.91;100.00
3132;BME280;62090;52.330;9.104;2024-03-23T06:12:31;100095.22;;;8.85;100.00
3132;BME280;62090;52.330;9.104;2024-03-23T06:14:58;100120.13;;;9.01;100.00
3132;BME280;62090;52.330;9.104;2024-03-23T06:17:24;100084.06;;;8.77;100.00
3132;BME280;62090;52.330;9.104;2024-03-23T06:19:50;100125.25;;;9.04;100.00
3132;BME280;62090;52.330;9.104;2024-03-23T06:22:16;100121.91;;;9.05;100.00
3132;BME280;62090;52.330;9.104;2024-03-23T06:24:45;100110.00;;;9.04;100.00
3132;BME280;62090;52.330;9.104;2024-03-23T06:27:12;100049.19;;;8.70;100.00
3132;BME280;62090;52.330;9.104;2024-03-23T06:29:38;100090.44;;;8.99;100.00
3132;BME280;62090;52.330;9.104;2024-03-23T06:32:04;100070.72;;;8.87;100.00
3132;BME280;62090;52.330;9.104;2024-03-23T06:34:30;100092.13;;;8.98;100.00
3132;BME280;62090;52.330;9.104;2024-03-23T06:36:57;100077.41;;;8.82;100.00
3132;BME280;62090;52.330;9.104;2024-03-23T06:39:23;100092.00;;;8.94;100.00
3132;BME280;62090;52.330;9.104;2024-03-23T06:41:54;100119.44;;;9.10;100.00
3132;BME280;62090;52.330;9.104;2024-03-23T06:44:21;100110.13;;;9.10;100.00
3132;BME280;62090;52.330;9.104;2024-03-23T06:46:47;100112.81;;;9.16;100.00
3132;BME280;62090;52.330;9.104;2024-03-23T06:49:13;100116.22;;;9.17;100.00
3132;BME280;62090;52.330;9.104;2024-03-23T06:51:40;100114.34;;;9.10;100.00
3132;BME280;62090;52.330;9.104;2024-03-23T06:54:06;100122.16;;;9.17;100.00
3132;BME280;62090;52.330;9.104;2024-03-23T06:56:32;100116.94;;;9.11;100.00
3132;BME280;62090;52.330;9.104;2024-03-23T06:59:01;100053.69;;;8.83;100.00
3132;BME280;62090;52.330;9.104;2024-03-23T07:01:28;100115.47;;;9.22;100.00
3132;BME280;62090;52.330;9.104;2024-03-23T07:03:54;100107.84;;;9.22;100.00
3132;BME280;62090;52.330;9.104;2024-03-23T07:06:21;100092.34;;;9.10;100.00
3132;BME280;62090;52.330;9.104;2024-03-23T07:08:47;100078.56;;;8.99;100.00
3132;BME280;62090;52.330;9.104;2024-03-23T07:11:18;100112.94;;;9.22;100.00
3132;BME280;62090;52.330;9.104;2024-03-23T07:13:45;100117.22;;;9.25;100.00
3132;BME280;62090;52.330;9.104;2024-03-23T07:16:13;100113.00;;;9.27;100.00
3132;BME280;62090;52.330;9.104;2024-03-23T07:18:40;100072.63;;;8.97;100.00
3132;BME280;62090;52.330;9.104;2024-03-23T07:21:06;100122.31;;;9.25;100.00
3132;BME280;62090;52.330;9.104;2024-03-23T07:23:33;100087.06;;;9.00;100.00
3132;BME280;62090;52.330;9.104;2024-03-23T07:26:00;100076.66;;;8.89;100.00
3132;BME280;62090;52.330;9.104;2024-03-23T07:28:26;100110.09;;;9.07;100.00
3132;BME280;62090;52.330;9.104;2024-03-23T07:31:04;100130.53;;;9.13;100.00
3132;BME280;62090;52.330;9.104;2024-03-23T07:33:33;100115.09;;;9.04;100.00
3132;BME280;62090;52.330;9.104;2024-03-23T07:35:59;100130.50;;;9.12;100.00
3132;BME280;62090;52.330;9.104;2024-03-23T07:38:26;100113.41;;;9.03;100.00
3132;BME280;62090;52.330;9.104;2024-03-23T07:41:02;100109.78;;;8.92;100.00
3132;BME280;62090;52.330;9.104;2024-03-23T07:43:29;100117.94;;;8.77;100.00
3132;BME280;62090;52.330;9.104;2024-03-23T07:45:55;100123.91;;;8.79;100.00
3132;BME280;62090;52.330;9.104;2024-03-23T07:48:22;100127.91;;;8.70;100.00
3132;BME280;62090;52.330;9.104;2024-03-23T07:50:59;100121.31;;;8.76;100.00
3132;BME280;62090;52.330;9.104;2024-03-23T07:53:25;100126.38;;;8.78;100.00
3132;BME280;62090;52.330;9.104;2024-03-23T07:55:55;100117.31;;;8.89;100.00
3132;BME280;62090;52.330;9.104;2024-03-23T07:58:22;100131.19;;;9.05;100.00
3132;BME280;62090;52.330;9.104;2024-03-23T08:00:48;100134.81;;;9.14;100.00
3132;BME280;62090;52.330;9.104;2024-03-23T08:03:14;100132.31;;;9.17;100.00
3132;BME280;62090;52.330;9.104;2024-03-23T08:05:40;100128.00;;;9.13;100.00
3132;BME280;62090;52.330;9.104;2024-03-23T08:08:09;100120.31;;;9.10;100.00
3132;BME280;62090;52.330;9.104;2024-03-23T08:10:36;100110.13;;;9.10;100.00
3132;BME280;62090;52.330;9.104;2024-03-23T08:13:02;100127.28;;;9.20;100.00
3132;BME280;62090;52.330;9.104;2024-03-23T08:15:30;100134.28;;;9.30;100.00
3132;BME280;62090;52.330;9.104;2024-03-23T08:17:57;100117.53;;;9.42;100.00
3132;BME280;62090;52.330;9.104;2024-03-23T08:20:23;100127.22;;;9.61;100.00
3132;BME280;62090;52.330;9.104;2024-03-23T08:22:49;100033.34;;;9.25;100.00
3132;BME280;62090;52.330;9.104;2024-03-23T08:25:18;100126.69;;;9.77;100.00
3132;BME280;62090;52.330;9.104;2024-03-23T08:27:44;100118.84;;;9.68;100.00
3132;BME280;62090;52.330;9.104;2024-03-23T08:30:11;100128.28;;;9.72;100.00
3132;BME280;62090;52.330;9.104;2024-03-23T08:32:38;100089.75;;;9.52;100.00
3132;BME280;62090;52.330;9.104;2024-03-23T08:35:05;100126.56;;;9.71;100.00
3132;BME280;62090;52.330;9.104;2024-03-23T08:37:31;100126.41;;;9.62;100.00
3132;BME280;62090;52.330;9.104;2024-03-23T08:39:57;100119.56;;;9.59;100.00
3132;BME280;62090;52.330;9.104;2024-03-23T08:42:26;100128.38;;;9.77;100.00
3132;BME280;62090;52.330;9.104;2024-03-23T08:44:53;100098.53;;;9.69;100.00
3132;BME280;62090;52.330;9.104;2024-03-23T08:47:19;100127.63;;;9.84;100.00
3132;BME280;62090;52.330;9.104;2024-03-23T08:49:45;100129.34;;;9.83;100.00
3132;BME280;62090;52.330;9.104;2024-03-23T08:52:11;100126.94;;;9.92;100.00
3132;BME280;62090;52.330;9.104;2024-03-23T08:54:38;100116.88;;;9.98;99.99
3132;BME280;62090;52.330;9.104;2024-03-23T08:57:04;100117.28;;;10.23;97.50
3132;BME280;62090;52.330;9.104;2024-03-23T08:59:33;100117.94;;;10.12;94.80
3132;BME280;62090;52.330;9.104;2024-03-23T09:01:59;100117.41;;;10.30;96.25
3132;BME280;62090;52.330;9.104;2024-03-23T09:04:26;100103.88;;;10.34;91.04
3132;BME280;62090;52.330;9.104;2024-03-23T09:06:52;100119.31;;;10.45;91.61
3132;BME280;62090;52.330;9.104;2024-03-23T09:09:18;100121.06;;;10.49;91.44
3132;BME280;62090;52.330;9.104;2024-03-23T09:11:44;100121.38;;;10.70;92.04
3132;BME280;62090;52.330;9.104;2024-03-23T09:14:11;100124.25;;;10.94;90.92
3132;BME280;62090;52.330;9.104;2024-03-23T09:16:40;100124.19;;;10.88;85.22
3132;BME280;62090;52.330;9.104;2024-03-23T09:19:06;100127.44;;;10.77;86.36
3132;BME280;62090;52.330;9.104;2024-03-23T09:21:32;100056.28;;;10.29;83.53
3132;BME280;62090;52.330;9.104;2024-03-23T09:23:58;100120.41;;;10.61;81.41
3132;BME280;62090;52.330;9.104;2024-03-23T09:26:24;100124.59;;;10.57;83.88
3132;BME280;62090;52.330;9.104;2024-03-23T09:28:51;100134.91;;;10.66;85.04
3132;BME280;62090;52.330;9.104;2024-03-23T09:31:17;100106.84;;;10.62;83.21
3132;BME280;62090;52.330;9.104;2024-03-23T09:33:46;100119.72;;;10.72;82.88
3132;BME280;62090;52.330;9.104;2024-03-23T09:36:12;100124.84;;;10.75;82.11
3132;BME280;62090;52.330;9.104;2024-03-23T09:38:39;100106.19;;;10.76;81.53
3132;BME280;62090;52.330;9.104;2024-03-23T09:41:07;100124.28;;;10.96;79.77
3132;BME280;62090;52.330;9.104;2024-03-23T09:43:34;100116.81;;;11.10;81.44
3132;BME280;62090;52.330;9.104;2024-03-23T09:46:02;100080.91;;;10.94;79.26
3132;BME280;62090;52.330;9.104;2024-03-23T09:48:28;100119.34;;;11.11;78.78
3132;BME280;62090;52.330;9.104;2024-03-23T09:50:58;100098.09;;;11.08;79.21
3132;BME280;62090;52.330;9.104;2024-03-23T09:53:24;100110.19;;;11.27;79.60
3132;BME280;62090;52.330;9.104;2024-03-23T09:55:51;100086.44;;;11.29;78.29
3132;BME280;62090;52.330;9.104;2024-03-23T09:58:18;100082.31;;;11.42;77.55
3132;BME280;62090;52.330;9.104;2024-03-23T10:00:44;100074.66;;;11.42;74.51
3132;BME280;62090;52.330;9.104;2024-03-23T10:03:11;100094.44;;;11.64;77.19
3132;BME280;62090;52.330;9.104;2024-03-23T10:05:38;100042.50;;;11.59;78.00
3132;BME280;62090;52.330;9.104;2024-03-23T10:08:17;100058.03;;;11.77;75.85
3132;BME280;62090;52.330;9.104;2024-03-23T10:10:45;100076.78;;;11.85;76.12
3132;BME280;62090;52.330;9.104;2024-03-23T10:13:23;100067.47;;;11.89;75.87
3132;BME280;62090;52.330;9.104;2024-03-23T10:15:55;100078.63;;;11.99;75.47
3132;BME280;62090;52.330;9.104;2024-03-23T10:18:22;100049.53;;;11.78;73.91
3132;BME280;62090;52.330;9.104;2024-03-23T10:20:51;100074.38;;;11.99;73.11
3132;BME280;62090;52.330;9.104;2024-03-23T10:23:20;100065.84;;;11.97;70.19
3132;BME280;62090;52.330;9.104;2024-03-23T10:25:46;100041.84;;;11.77;70.70
3132;BME280;62090;52.330;9.104;2024-03-23T10:28:12;100084.28;;;11.70;75.68
3132;BME280;62090;52.330;9.104;2024-03-23T10:30:39;100094.94;;;11.30;77.36
3132;BME280;62090;52.330;9.104;2024-03-23T10:33:09;100096.19;;;10.94;78.10
3132;BME280;62090;52.330;9.104;2024-03-23T10:35:36;100084.78;;;10.65;79.48
3132;BME280;62090;52.330;9.104;2024-03-23T10:38:05;100090.63;;;10.58;80.24
3132;BME280;62090;52.330;9.104;2024-03-23T10:40:35;100098.63;;;10.82;81.75
3132;BME280;62090;52.330;9.104;2024-03-23T10:43:03;100088.78;;;11.13;80.31
3132;BME280;62090;52.330;9.104;2024-03-23T10:45:29;100085.56;;;11.27;75.46
3132;BME280;62090;52.330;9.104;2024-03-23T10:47:55;100040.09;;;10.88;74.24
3132;BME280;62090;52.330;9.104;2024-03-23T10:50:22;100063.09;;;10.96;72.96
3132;BME280;62090;52.330;9.104;2024-03-23T10:52:48;100068.34;;;11.08;72.45
3132;BME280;62090;52.330;9.104;2024-03-23T10:55:17;100090.66;;;11.27;72.78
3132;BME280;62090;52.330;9.104;2024-03-23T10:57:50;100077.94;;;11.29;70.28
3132;BME280;62090;52.330;9.104;2024-03-23T11:00:18;100091.34;;;11.13;70.18
3132;BME280;62090;52.330;9.104;2024-03-23T11:02:44;100096.31;;;11.02;71.61
3132;BME280;62090;52.330;9.104;2024-03-23T11:05:28;100103.53;;;10.70;72.63
3132;BME280;62090;52.330;9.104;2024-03-23T11:07:55;100095.97;;;10.73;76.20
3132;BME280;62090;52.330;9.104;2024-03-23T11:10:26;100111.78;;;10.51;75.08
3132;BME280;62090;52.330;9.104;2024-03-23T11:12:55;100121.38;;;10.14;77.89
3132;BME280;62090;52.330;9.104;2024-03-23T11:15:22;100113.63;;;9.59;79.43
3132;BME280;62090;52.330;9.104;2024-03-23T11:18:06;100114.44;;;9.58;80.55
3132;BME280;62090;52.330;9.104;2024-03-23T11:20:35;100123.38;;;9.38;81.61
3132;BME280;62090;52.330;9.104;2024-03-23T11:23:02;100091.56;;;9.13;82.17
3132;BME280;62090;52.330;9.104;2024-03-23T11:25:29;100107.69;;;9.15;83.17
3132;BME280;62090;52.330;9.104;2024-03-23T11:28:09;100121.53;;;9.29;84.38
3132;BME280;62090;52.330;9.104;2024-03-23T11:30:36;100117.19;;;9.23;84.71
3132;BME280;62090;52.330;9.104;2024-03-23T11:33:03;100114.94;;;9.39;86.20
3132;BME280;62090;52.330;9.104;2024-03-23T11:35:30;100110.97;;;9.51;84.93
3132;BME280;62090;52.330;9.104;2024-03-23T11:38:07;100110.34;;;9.64;86.09
3132;BME280;62090;52.330;9.104;2024-03-23T11:40:33;100048.00;;;9.40;84.88
3132;BME280;62090;52.330;9.104;2024-03-23T11:43:04;100098.63;;;9.74;84.58
3132;BME280;62090;52.330;9.104;2024-03-23T11:45:35;100109.81;;;9.82;83.48
3132;BME280;62090;52.330;9.104;2024-03-23T11:48:05;100119.28;;;9.91;81.87
3132;BME280;62090;52.330;9.104;2024-03-23T11:50:32;100138.34;;;10.14;83.37
3132;BME280;62090;52.330;9.104;2024-03-23T11:53:22;100130.16;;;9.84;83.28
3132;BME280;62090;52.330;9.104;2024-03-23T11:55:50;100157.38;;;9.86;85.67
3132;BME280;62090;52.330;9.104;2024-03-23T11:58:20;100147.50;;;9.56;85.30
3132;BME280;62090;52.330;9.104;2024-03-23T12:00:51;100156.41;;;9.35;87.99
3132;BME280;62090;52.330;9.104;2024-03-23T12:03:18;100154.19;;;9.09;91.28
3132;BME280;62090;52.330;9.104;2024-03-23T12:05:48;100161.31;;;8.86;92.73
3132;BME280;62090;52.330;9.104;2024-03-23T12:08:16;100155.69;;;8.62;92.72
3132;BME280;62090;52.330;9.104;2024-03-23T12:10:44;100102.00;;;8.45;94.91
3132;BME280;62090;52.330;9.104;2024-03-23T12:13:11;100141.84;;;8.87;95.41
3132;BME280;62090;52.330;9.104;2024-03-23T12:15:40;100132.28;;;9.14;95.21
3132;BME280;62090;52.330;9.104;2024-03-23T12:18:07;100144.75;;;9.47;95.56
3132;BME280;62090;52.330;9.104;2024-03-23T12:20:33;100121.41;;;9.68;94.14
3132;BME280;62090;52.330;9.104;2024-03-23T12:23:05;100114.78;;;9.76;92.52
3132;BME280;62090;52.330;9.104;2024-03-23T12:25:31;100130.50;;;10.02;92.61
3132;BME280;62090;52.330;9.104;2024-03-23T12:27:59;100111.94;;;10.10;93.31
3132;BME280;62090;52.330;9.104;2024-03-23T12:30:25;100122.44;;;10.27;93.45
3132;BME280;62090;52.330;9.104;2024-03-23T12:32:54;100105.06;;;10.05;89.93
3132;BME280;62090;52.330;9.104;2024-03-23T12:35:20;100108.94;;;9.82;91.43
3132;BME280;62090;52.330;9.104;2024-03-23T12:37:46;100038.81;;;9.48;91.37
3132;BME280;62090;52.330;9.104;2024-03-23T12:40:13;100110.09;;;10.00;89.53
3132;BME280;62090;52.330;9.104;2024-03-23T12:42:39;100092.09;;;9.88;86.70
3132;BME280;62090;52.330;9.104;2024-03-23T12:45:06;100105.25;;;10.15;87.78
3132;BME280;62090;52.330;9.104;2024-03-23T12:47:33;100088.31;;;10.16;85.29
3132;BME280;62090;52.330;9.104;2024-03-23T12:50:02;100095.25;;;10.25;84.65
3132;BME280;62090;52.330;9.104;2024-03-23T12:52:28;100100.25;;;10.19;81.67
3132;BME280;62090;52.330;9.104;2024-03-23T12:54:55;100064.28;;;10.00;81.36
3132;BME280;62090;52.330;9.104;2024-03-23T12:57:23;100088.19;;;10.08;77.55
3132;BME280;62090;52.330;9.104;2024-03-23T12:59:50;100095.47;;;9.89;75.95
3132;BME280;62090;52.330;9.104;2024-03-23T13:02:18;100081.75;;;9.78;76.63
3132;BME280;62090;52.330;9.104;2024-03-23T13:04:45;100057.03;;;9.70;75.65
3132;BME280;62090;52.330;9.104;2024-03-23T13:07:14;100079.56;;;10.00;75.45
3132;BME280;62090;52.330;9.104;2024-03-23T13:09:40;100012.16;;;9.75;76.81
3132;BME280;62090;52.330;9.104;2024-03-23T13:12:07;100071.50;;;10.27;76.37
3132;BME280;62090;52.330;9.104;2024-03-23T13:14:34;100038.06;;;10.06;74.61
3132;BME280;62090;52.330;9.104;2024-03-23T13:17:00;100013.22;;;9.90;74.43
3132;BME280;62090;52.330;9.104;2024-03-23T13:19:26;100070.88;;;10.40;75.38
3132;BME280;62090;52.330;9.104;2024-03-23T13:21:53;100066.78;;;10.51;76.40
3132;BME280;62090;52.330;9.104;2024-03-23T13:24:24;100029.28;;;10.43;74.77
3132;BME280;62090;52.330;9.104;2024-03-23T13:26:50;100075.53;;;10.70;75.20
3132;BME280;62090;52.330;9.104;2024-03-23T13:29:17;100073.06;;;10.76;73.92
3132;BME280;62090;52.330;9.104;2024-03-23T13:31:43;100030.41;;;10.63;73.91
3132;BME280;62090;52.330;9.104;2024-03-23T13:34:09;100033.75;;;10.59;71.32
3132;BME280;62090;52.330;9.104;2024-03-23T13:36:35;100067.81;;;10.66;71.38
3132;BME280;62090;52.330;9.104;2024-03-23T13:39:02;100088.84;;;10.52;71.62
3132;BME280;62090;52.330;9.104;2024-03-23T13:41:31;100025.28;;;10.01;70.63
3132;BME280;62090;52.330;9.104;2024-03-23T13:43:57;100089.31;;;10.24;70.32
3132;BME280;62090;52.330;9.104;2024-03-23T13:46:24;100115.44;;;10.15;70.88
3132;BME280;62090;52.330;9.104;2024-03-23T13:48:50;100041.31;;;9.45;72.32
3132;BME280;62090;52.330;9.104;2024-03-23T13:51:23;100126.31;;;9.57;77.24
3132;BME280;62090;52.330;9.104;2024-03-23T13:53:50;100110.78;;;8.99;82.87